Time;durP1;ratioP1;P1;durP2;ratioP2;P2;SDS_P1;SDS_P2;PMS_P1;PMS_P2;Temp;Humidity;BMP_temperature;BMP_pressure;BME280_temperature;BME280_humidity;BME280_pressure;Samples;Min_cycle;Max_cycle;Signal;HPM_P1;HPM_P2
2021/01/07 00:02:18;;;;;;;3.10;1.90;;;1.30;96.00;;;;;;5030449;28;20482;-83
2021/01/07 00:04:44;;;;;;;3.75;2.38;;;1.40;96.00;;;;;;5025571;28;20493;-82
2021/01/07 00:07:10;;;;;;;2.97;2.17;;;1.40;96.00;;;;;;5027269;28;20046;-82
2021/01/07 00:09:36;;;;;;;3.30;2.20;;;1.40;96.00;;;;;;5030323;28;20041;-82
2021/01/07 00:12:01;;;;;;;3.55;2.15;;;1.40;96.00;;;;;;5031269;28;20339;-83
2021/01/07 00:14:27;;;;;;;4.50;2.47;;;1.40;96.00;;;;;;5033856;28;20080;-82
2021/01/07 00:16:53;;;;;;;4.15;2.38;;;1.40;96.00;;;;;;5028182;28;20060;-82
2021/01/07 00:19:19;;;;;;;3.67;2.42;;;1.40;96.00;;;;;;5027888;28;20060;-83
2021/01/07 00:21:45;;;;;;;5.35;2.53;;;1.40;96.00;;;;;;5026895;28;20045;-81
2021/01/07 00:24:10;;;;;;;6.30;2.90;;;1.30;96.00;;;;;;5029022;28;20052;-83
2021/01/07 00:26:36;;;;;;;5.50;3.00;;;1.30;96.10;;;;;;5027617;28;20049;-82
2021/01/07 00:29:03;;;;;;;5.00;2.75;;;1.30;96.10;;;;;;5027293;28;20666;-83
2021/01/07 00:31:29;;;;;;;3.75;2.67;;;1.30;96.10;;;;;;5027842;28;20497;-80
2021/01/07 00:33:56;;;;;;;4.35;2.63;;;1.30;96.10;;;;;;5026740;28;20069;-83
2021/01/07 00:36:21;;;;;;;4.55;2.55;;;1.30;96.20;;;;;;5027990;28;20485;-82
2021/01/07 00:38:47;;;;;;;6.13;2.60;;;1.20;96.10;;;;;;5036785;28;20064;-83
2021/01/07 00:41:17;;;;;;;3.33;2.50;;;1.30;96.20;;;;;;5028617;28;20053;-82
2021/01/07 00:43:44;;;;;;;3.70;2.25;;;1.30;96.20;;;;;;5026433;28;20072;-79
2021/01/07 00:46:10;;;;;;;4.25;2.50;;;1.30;96.20;;;;;;5027599;28;20049;-81
2021/01/07 00:48:36;;;;;;;4.85;2.72;;;1.30;96.20;;;;;;5027829;28;20059;-82
2021/01/07 00:51:02;;;;;;;4.57;2.53;;;1.30;96.20;;;;;;5040043;28;20044;-82
2021/01/07 00:53:28;;;;;;;4.97;2.50;;;1.40;96.30;;;;;;5028282;28;20057;-82
2021/01/07 00:55:54;;;;;;;4.07;2.63;;;1.30;96.20;;;;;;5027731;28;20041;-82
2021/01/07 00:58:20;;;;;;;5.00;2.90;;;1.40;96.30;;;;;;5026836;28;20049;-82
2021/01/07 01:00:45;;;;;;;6.45;2.65;;;1.40;96.30;;;;;;5027024;28;20136;-82
2021/01/07 01:03:13;;;;;;;3.70;2.60;;;1.40;96.30;;;;;;5027992;28;20517;-82
2021/01/07 01:05:39;;;;;;;3.20;2.30;;;1.30;96.30;;;;;;5027827;28;20107;-83
2021/01/07 01:08:05;;;;;;;4.72;2.38;;;1.40;96.30;;;;;;5027881;28;20049;-82
2021/01/07 01:10:31;;;;;;;3.08;2.10;;;1.40;96.30;;;;;;5026434;28;20096;-82
2021/01/07 01:12:57;;;;;;;3.53;2.30;;;1.40;96.30;;;;;;5023677;28;20065;-82
2021/01/07 01:15:23;;;;;;;3.50;2.15;;;1.30;96.30;;;;;;5027599;28;20049;-81
2021/01/07 01:17:48;;;;;;;3.65;2.20;;;1.40;96.30;;;;;;5024961;28;20559;-83
2021/01/07 01:20:14;;;;;;;4.38;2.38;;;1.40;96.30;;;;;;5026387;28;20041;-82
2021/01/07 01:22:41;;;;;;;5.43;2.45;;;1.40;96.30;;;;;;5026957;28;20053;-82
2021/01/07 01:25:09;;;;;;;4.18;2.20;;;1.40;96.30;;;;;;5026579;28;20057;-83
2021/01/07 01:27:41;;;;;;;3.88;2.10;;;1.40;96.40;;;;;;5027610;28;20057;-82
2021/01/07 01:30:09;;;;;;;7.00;2.58;;;1.40;96.30;;;;;;5024886;28;20084;-82
2021/01/07 01:32:35;;;;;;;4.15;2.30;;;1.40;96.40;;;;;;5025684;28;20045;-78
2021/01/07 01:35:02;;;;;;;6.43;2.70;;;1.40;96.40;;;;;;5026036;28;20037;-82
2021/01/07 01:37:28;;;;;;;4.45;2.50;;;1.40;96.30;;;;;;5028125;28;20045;-82
2021/01/07 01:39:53;;;;;;;5.35;2.20;;;1.40;96.40;;;;;;5027567;28;20504;-83
2021/01/07 01:42:26;;;;;;;5.18;2.30;;;1.30;96.30;;;;;;5026869;28;20059;-82
2021/01/07 01:44:53;;;;;;;3.90;1.98;;;1.30;96.40;;;;;;5026600;28;20179;-82
2021/01/07 01:47:20;;;;;;;4.15;2.15;;;1.30;96.40;;;;;;5026238;28;20493;-83
2021/01/07 01:49:53;;;;;;;3.28;2.00;;;1.30;96.40;;;;;;5025348;28;20041;-80
2021/01/07 01:52:21;;;;;;;4.00;2.00;;;1.40;96.40;;;;;;5025635;28;20103;-83
2021/01/07 01:54:47;;;;;;;4.47;2.47;;;1.30;96.40;;;;;;5027694;28;20049;-82
2021/01/07 01:57:14;;;;;;;4.32;2.13;;;1.40;96.40;;;;;;5024678;28;20049;-81
2021/01/07 01:59:41;;;;;;;2.75;2.00;;;1.40;96.40;;;;;;5039686;28;20054;-82
2021/01/07 02:02:15;;;;;;;3.35;2.08;;;1.40;96.50;;;;;;5040424;28;20137;-83
2021/01/07 02:04:40;;;;;;;4.22;2.10;;;1.40;96.50;;;;;;5037758;28;20387;-82
2021/01/07 02:07:10;;;;;;;3.20;2.20;;;1.40;96.40;;;;;;5025493;28;20046;-83
2021/01/07 02:09:36;;;;;;;2.95;2.10;;;1.40;96.50;;;;;;5025807;28;20084;-81
2021/01/07 02:12:02;;;;;;;4.40;2.10;;;1.40;96.50;;;;;;5030621;28;20065;-83
2021/01/07 02:14:28;;;;;;;5.22;2.10;;;1.40;96.50;;;;;;5040904;28;20045;-82
2021/01/07 02:16:55;;;;;;;4.78;2.28;;;1.40;96.50;;;;;;5030195;28;20047;-82
2021/01/07 02:19:22;;;;;;;3.00;2.10;;;1.40;96.50;;;;;;5029805;28;20409;-83
2021/01/07 02:21:48;;;;;;;3.20;1.88;;;1.50;96.60;;;;;;5029729;28;20069;-82
2021/01/07 02:24:16;;;;;;;2.80;1.80;;;1.50;96.60;;;;;;5031491;28;20100;-83
2021/01/07 02:26:43;;;;;;;4.35;1.98;;;1.50;96.60;;;;;;5029355;28;20045;-80
2021/01/07 02:29:09;;;;;;;3.53;1.95;;;1.50;96.60;;;;;;5028463;28;20041;-82
2021/01/07 02:31:36;;;;;;;3.42;1.90;;;1.60;96.60;;;;;;5030354;28;20048;-82
2021/01/07 02:34:02;;;;;;;4.18;2.03;;;1.60;96.50;;;;;;5030682;28;20536;-83
2021/01/07 02:36:28;;;;;;;4.97;2.15;;;1.50;96.50;;;;;;5029994;28;20438;-83
2021/01/07 02:38:54;;;;;;;4.03;2.33;;;1.60;96.60;;;;;;5037418;28;20091;-83
2021/01/07 02:41:20;;;;;;;3.65;2.13;;;1.60;96.50;;;;;;5030410;28;20119;-83
2021/01/07 02:43:45;;;;;;;3.80;2.28;;;1.60;96.60;;;;;;5030177;28;20088;-80
2021/01/07 02:46:11;;;;;;;3.15;1.92;;;1.60;96.60;;;;;;5030781;28;20481;-83
2021/01/07 02:48:37;;;;;;;5.28;2.40;;;1.60;96.60;;;;;;5030111;28;20042;-82
2021/01/07 02:51:03;;;;;;;3.97;1.88;;;1.60;96.60;;;;;;5029163;28;20701;-83
2021/01/07 02:53:29;;;;;;;7.45;2.88;;;1.60;96.60;;;;;;5030184;28;20049;-83
2021/01/07 02:55:55;;;;;;;3.78;2.30;;;1.60;96.60;;;;;;5028680;28;20234;-82
2021/01/07 02:58:20;;;;;;;4.20;2.20;;;1.60;96.60;;;;;;5038826;28;20054;-83
2021/01/07 03:00:46;;;;;;;3.72;2.50;;;1.60;96.60;;;;;;5028765;28;20431;-82
2021/01/07 03:03:12;;;;;;;3.65;1.83;;;1.60;96.60;;;;;;5030392;28;20084;-82
2021/01/07 03:05:38;;;;;;;3.20;2.22;;;1.60;96.60;;;;;;5030339;28;20481;-83
2021/01/07 03:08:04;;;;;;;4.88;2.28;;;1.60;96.60;;;;;;5028668;28;20075;-82
2021/01/07 03:10:30;;;;;;;4.53;2.20;;;1.60;96.60;;;;;;5031798;28;20135;-81
2021/01/07 03:12:55;;;;;;;3.80;1.98;;;1.70;96.60;;;;;;5027404;28;20584;-82
2021/01/07 03:15:21;;;;;;;4.63;2.03;;;1.60;96.50;;;;;;5030108;28;20053;-82
2021/01/07 03:17:47;;;;;;;3.35;1.80;;;1.60;96.50;;;;;;5025093;28;20049;-83
2021/01/07 03:20:14;;;;;;;2.70;1.83;;;1.60;96.50;;;;;;5028575;28;20065;-82
2021/01/07 03:22:41;;;;;;;2.60;1.80;;;1.60;96.60;;;;;;5043096;28;20068;-79
2021/01/07 03:25:08;;;;;;;3.55;1.80;;;1.60;96.50;;;;;;5027644;28;20041;-81
2021/01/07 03:27:36;;;;;;;5.45;1.90;;;1.70;96.60;;;;;;5029715;28;20102;-82
2021/01/07 03:30:04;;;;;;;3.10;1.95;;;1.70;96.60;;;;;;5010578;28;20275;-82
2021/01/07 03:32:30;;;;;;;3.03;1.80;;;1.60;96.50;;;;;;5029520;28;20141;-82
2021/01/07 03:34:56;;;;;;;3.85;1.75;;;1.60;96.50;;;;;;5027798;28;20128;-82
2021/01/07 03:37:22;;;;;;;2.50;1.83;;;1.70;96.50;;;;;;5028064;28;20417;-82
2021/01/07 03:39:47;;;;;;;4.28;1.98;;;1.60;96.50;;;;;;5028563;28;20052;-80
2021/01/07 03:42:13;;;;;;;4.47;2.00;;;1.60;96.50;;;;;;5028463;28;20088;-83
2021/01/07 03:44:39;;;;;;;3.38;1.90;;;1.70;96.50;;;;;;5028391;28;20045;-81
2021/01/07 03:47:05;;;;;;;2.63;1.80;;;1.70;96.50;;;;;;5029623;28;20501;-78
2021/01/07 03:49:31;;;;;;;4.72;1.98;;;1.70;96.50;;;;;;5029991;28;20188;-83
2021/01/07 03:51:57;;;;;;;3.42;1.90;;;1.70;96.50;;;;;;5028754;28;20051;-83
2021/01/07 03:54:22;;;;;;;4.03;2.00;;;1.70;96.50;;;;;;5029449;28;20072;-83
2021/01/07 03:56:48;;;;;;;4.38;1.83;;;1.70;96.50;;;;;;5042642;28;20049;-82
2021/01/07 03:59:14;;;;;;;3.08;1.95;;;1.70;96.50;;;;;;5028330;28;20053;-82
2021/01/07 04:01:40;;;;;;;3.33;1.73;;;1.70;96.50;;;;;;5044488;28;20054;-82
2021/01/07 04:04:06;;;;;;;3.15;1.98;;;1.70;96.50;;;;;;5043027;28;20068;-84
2021/01/07 04:06:31;;;;;;;4.55;2.28;;;1.70;96.50;;;;;;5029412;28;20042;-84
2021/01/07 04:08:57;;;;;;;3.72;2.10;;;1.70;96.50;;;;;;5028562;28;20051;-84
2021/01/07 04:11:23;;;;;;;3.25;2.00;;;1.60;96.50;;;;;;5028621;28;20077;-84
2021/01/07 04:13:49;;;;;;;3.72;2.03;;;1.70;96.60;;;;;;5041342;28;20060;-83
2021/01/07 04:16:14;;;;;;;3.85;2.17;;;1.70;96.60;;;;;;5028242;28;20408;-83
2021/01/07 04:18:40;;;;;;;3.70;2.10;;;1.60;96.50;;;;;;5043441;28;20100;-83
2021/01/07 04:21:06;;;;;;;6.85;2.00;;;1.70;96.50;;;;;;5041079;28;20463;-82
2021/01/07 04:23:32;;;;;;;4.70;2.15;;;1.60;96.50;;;;;;5029342;28;20046;-83
2021/01/07 04:25:58;;;;;;;4.03;2.17;;;1.70;96.50;;;;;;5027037;28;20396;-84
2021/01/07 04:28:23;;;;;;;5.35;2.28;;;1.60;96.50;;;;;;5027528;28;20454;-84
2021/01/07 04:30:49;;;;;;;4.65;2.53;;;1.70;96.60;;;;;;5042324;28;20053;-84
2021/01/07 04:33:17;;;;;;;4.80;2.20;;;1.60;96.60;;;;;;5027041;28;20045;-83
2021/01/07 04:35:43;;;;;;;3.35;1.85;;;1.70;96.60;;;;;;5028068;28;20174;-80
2021/01/07 04:38:09;;;;;;;4.03;2.10;;;1.70;96.60;;;;;;5029077;28;20053;-83
2021/01/07 04:40:35;;;;;;;3.35;1.90;;;1.70;96.60;;;;;;5028878;28;20409;-83
2021/01/07 04:43:01;;;;;;;5.22;2.35;;;1.70;96.70;;;;;;5025961;28;20053;-84
2021/01/07 04:45:27;;;;;;;6.90;2.30;;;1.70;96.60;;;;;;5028823;28;20548;-84
2021/01/07 04:47:53;;;;;;;5.15;2.17;;;1.70;96.60;;;;;;5024447;28;20115;-84
2021/01/07 04:50:19;;;;;;;4.07;2.33;;;1.70;96.60;;;;;;5027138;28;20045;-84
2021/01/07 04:52:45;;;;;;;4.07;2.22;;;1.80;96.60;;;;;;5027263;28;20448;-81
2021/01/07 04:55:11;;;;;;;3.80;2.10;;;1.70;96.60;;;;;;5027629;28;20048;-84
2021/01/07 04:57:37;;;;;;;5.25;2.35;;;1.70;96.60;;;;;;5027042;28;20565;-83
2021/01/07 05:00:05;;;;;;;2.70;2.03;;;1.70;96.60;;;;;;5028243;28;20641;-83
2021/01/07 05:02:32;;;;;;;3.55;2.10;;;1.80;96.70;;;;;;5026842;28;20049;-84
2021/01/07 05:04:58;;;;;;;2.97;2.08;;;1.70;96.60;;;;;;5025532;28;20049;-83
2021/01/07 05:07:24;;;;;;;7.47;2.30;;;1.80;96.60;;;;;;5028814;28;20407;-83
2021/01/07 05:10:08;;;;;;;3.97;1.90;;;1.80;96.60;;;;;;5025835;28;20087;-84
2021/01/07 05:12:35;;;;;;;3.10;1.98;;;1.80;96.60;;;;;;5025813;28;20053;-84
2021/01/07 05:15:01;;;;;;;3.83;2.20;;;1.80;96.60;;;;;;5025546;28;20045;-84
2021/01/07 05:17:27;;;;;;;4.32;1.95;;;1.80;96.60;;;;;;5027103;28;20111;-84
2021/01/07 05:19:54;;;;;;;4.07;1.98;;;1.80;96.60;;;;;;5025318;28;20045;-84
2021/01/07 05:22:27;;;;;;;2.70;2.00;;;1.80;96.60;;;;;;5027144;28;20084;-82
2021/01/07 05:24:54;;;;;;;3.15;1.88;;;1.80;96.60;;;;;;5025808;28;20049;-84
2021/01/07 05:27:21;;;;;;;4.82;2.10;;;1.80;96.60;;;;;;5026684;28;20139;-84
2021/01/07 05:29:47;;;;;;;5.15;2.30;;;1.90;96.60;;;;;;5025582;28;20054;-83
2021/01/07 05:32:13;;;;;;;3.35;1.80;;;1.80;96.60;;;;;;5027137;28;20057;-83
2021/01/07 05:34:47;;;;;;;4.10;2.05;;;1.90;96.60;;;;;;5041310;28;20057;-81
2021/01/07 05:37:18;;;;;;;5.10;2.30;;;1.90;96.60;;;;;;5028416;28;20053;-82
2021/01/07 05:39:48;;;;;;;3.17;1.90;;;1.90;96.60;;;;;;5042224;28;20068;-80
2021/01/07 05:42:14;;;;;;;6.60;2.20;;;1.90;96.60;;;;;;5027158;28;20045;-83
2021/01/07 05:44:47;;;;;;;5.47;2.22;;;1.90;96.60;;;;;;5026114;28;20053;-81
2021/01/07 05:47:29;;;;;;;3.75;1.88;;;1.90;96.60;;;;;;5027108;28;20509;-83
2021/01/07 05:49:56;;;;;;;5.88;2.28;;;1.90;96.60;;;;;;5026864;28;20045;-85
2021/01/07 05:52:27;;;;;;;4.15;2.00;;;1.90;96.60;;;;;;5026910;28;20071;-84
2021/01/07 05:54:54;;;;;;;3.90;2.10;;;1.90;96.60;;;;;;5044011;28;20103;-84
2021/01/07 05:57:22;;;;;;;3.15;1.75;;;2.00;96.60;;;;;;5025618;28;20041;-84
2021/01/07 05:59:48;;;;;;;4.70;2.25;;;1.90;96.60;;;;;;5034462;28;20049;-84
2021/01/07 06:02:16;;;;;;;3.05;1.90;;;1.90;96.60;;;;;;5027458;28;20541;-84
2021/01/07 06:04:49;;;;;;;5.13;1.70;;;2.00;96.60;;;;;;5027304;28;20049;-83
2021/01/07 06:07:16;;;;;;;2.85;1.80;;;1.90;96.60;;;;;;5027168;28;20103;-85
2021/01/07 06:09:45;;;;;;;2.92;1.80;;;2.00;96.50;;;;;;5026289;28;20037;-83
2021/01/07 06:12:13;;;;;;;3.17;1.77;;;2.00;96.50;;;;;;5026332;28;20057;-82
2021/01/07 06:14:43;;;;;;;3.35;1.80;;;2.00;96.50;;;;;;5023665;28;20049;-81
2021/01/07 06:17:10;;;;;;;4.57;1.98;;;2.00;96.50;;;;;;5024896;28;20050;-82
2021/01/07 06:19:44;;;;;;;5.10;2.63;;;2.00;96.50;;;;;;5039253;28;20049;-81
2021/01/07 06:22:15;;;;;;;4.40;2.30;;;1.90;96.50;;;;;;5024766;28;20057;-82
2021/01/07 06:24:43;;;;;;;4.68;2.55;;;2.00;96.50;;;;;;5041428;28;20057;-81
2021/01/07 06:27:27;;;;;;;4.28;2.35;;;2.00;96.50;;;;;;5025372;28;20034;-81
2021/01/07 06:30:10;;;;;;;7.22;3.15;;;2.00;96.80;;;;;;5040768;28;20379;-81
2021/01/07 06:32:40;;;;;;;3.35;2.20;;;2.00;96.60;;;;;;5026142;28;20041;-80
2021/01/07 06:35:14;;;;;;;4.00;2.38;;;1.90;96.50;;;;;;5036083;28;20136;-80
2021/01/07 06:37:48;;;;;;;4.72;3.53;;;2.00;96.60;;;;;;5027592;28;20037;-81
2021/01/07 06:40:15;;;;;;;4.13;2.25;;;2.00;96.60;;;;;;5025889;28;20128;-81
2021/01/07 06:42:44;;;;;;;4.82;2.20;;;2.00;96.80;;;;;;5024805;28;20060;-81
2021/01/07 06:45:11;;;;;;;5.05;2.38;;;2.00;96.60;;;;;;5026597;28;20045;-81
2021/01/07 06:47:38;;;;;;;4.57;2.42;;;2.00;96.60;;;;;;5014172;28;20049;-79
2021/01/07 06:50:06;;;;;;;5.45;3.10;;;2.00;96.50;;;;;;5034562;28;20898;-82
2021/01/07 06:52:43;;;;;;;3.92;2.40;;;2.00;96.60;;;;;;5021838;28;20045;-80
2021/01/07 06:55:14;;;;;;;3.50;2.30;;;2.00;96.60;;;;;;5022268;28;20413;-81
2021/01/07 06:57:44;;;;;;;5.22;2.33;;;2.10;96.60;;;;;;5025792;28;20474;-80
2021/01/07 07:00:13;;;;;;;5.25;2.25;;;2.10;96.60;;;;;;5039355;28;20614;-81
2021/01/07 07:02:39;;;;;;;3.63;2.17;;;2.10;96.60;;;;;;5013770;28;20554;-80
2021/01/07 07:05:10;;;;;;;5.68;2.33;;;2.10;96.60;;;;;;5030450;28;20517;-82
2021/01/07 07:08:02;;;;;;;4.68;2.03;;;2.10;96.60;;;;;;5028150;28;20503;-81
2021/01/07 07:10:50;;;;;;;5.25;2.78;;;2.10;96.60;;;;;;5009791;28;20061;-82
2021/01/07 07:13:18;;;;;;;6.60;2.20;;;2.10;96.60;;;;;;5015654;28;20401;-82
2021/01/07 07:15:46;;;;;;;8.15;2.67;;;2.10;96.60;;;;;;5028055;28;20054;-81
2021/01/07 07:18:11;;;;;;;3.15;2.05;;;2.10;96.60;;;;;;5029239;28;20045;-82
2021/01/07 07:20:45;;;;;;;4.68;2.30;;;2.10;96.60;;;;;;5030121;28;20090;-83
2021/01/07 07:23:22;;;;;;;4.78;2.20;;;2.20;96.70;;;;;;5029595;28;20053;-82
2021/01/07 07:25:52;;;;;;;4.68;2.60;;;2.10;96.60;;;;;;5029708;28;20044;-82
2021/01/07 07:28:20;;;;;;;7.07;2.80;;;2.10;96.60;;;;;;5031296;28;20056;-81
2021/01/07 07:30:47;;;;;;;5.47;2.67;;;2.10;96.70;;;;;;5028374;28;20057;-82
2021/01/07 07:33:31;;;;;;;6.85;2.53;;;2.10;96.70;;;;;;5038919;28;20057;-82
2021/01/07 07:35:57;;;;;;;4.90;2.35;;;2.10;96.70;;;;;;5029015;28;20489;-82
2021/01/07 07:38:54;;;;;;;4.38;2.40;;;2.10;96.60;;;;;;5036008;28;20523;-83
2021/01/07 07:41:26;;;;;;;3.92;2.90;;;2.10;96.60;;;;;;5018267;28;20045;-83
2021/01/07 07:43:56;;;;;;;7.22;3.90;;;2.10;96.60;;;;;;5028295;28;20136;-82
2021/01/07 07:46:26;;;;;;;4.25;2.65;;;2.10;96.60;;;;;;5028927;28;20049;-83
2021/01/07 07:48:59;;;;;;;4.97;3.25;;;2.10;96.60;;;;;;5030025;28;20543;-82
2021/01/07 07:51:25;;;;;;;5.70;3.08;;;2.10;96.50;;;;;;5028881;28;20925;-82
2021/01/07 07:54:05;;;;;;;5.70;3.05;;;2.10;96.50;;;;;;5028959;28;20053;-82
2021/01/07 07:56:31;;;;;;;5.93;3.20;;;2.10;96.60;;;;;;5029870;28;20061;-83
2021/01/07 07:58:59;;;;;;;7.35;3.40;;;2.10;96.50;;;;;;5027527;28;20076;-82
2021/01/07 08:01:46;;;;;;;7.85;3.50;;;2.10;96.50;;;;;;5028880;28;20111;-81
2021/01/07 08:04:14;;;;;;;4.80;3.30;;;2.10;96.60;;;;;;5018080;28;20434;-82
2021/01/07 08:06:40;;;;;;;5.20;3.20;;;2.20;96.60;;;;;;5028951;28;20452;-81
2021/01/07 08:09:08;;;;;;;6.43;3.30;;;2.10;96.60;;;;;;5026846;28;20053;-81
2021/01/07 08:11:53;;;;;;;6.55;3.67;;;2.10;96.50;;;;;;5030332;28;20426;-82
2021/01/07 08:14:24;;;;;;;5.25;3.55;;;2.10;96.50;;;;;;5030720;28;20053;-82
2021/01/07 08:17:01;;;;;;;7.15;3.47;;;2.10;96.50;;;;;;5043453;28;20041;-82
2021/01/07 08:19:32;;;;;;;5.20;3.13;;;2.10;96.50;;;;;;5032180;28;20073;-81
2021/01/07 08:21:58;;;;;;;6.00;3.30;;;2.20;96.50;;;;;;5028911;28;20136;-82
2021/01/07 08:24:27;;;;;;;5.47;3.20;;;2.20;96.50;;;;;;5038904;28;20497;-82
2021/01/07 08:27:05;;;;;;;4.82;3.05;;;2.20;96.50;;;;;;5040991;28;20056;-82
2021/01/07 08:29:36;;;;;;;6.05;3.70;;;2.20;96.60;;;;;;5028942;28;20041;-81
2021/01/07 08:32:04;;;;;;;5.43;3.58;;;2.20;96.50;;;;;;5028755;28;20129;-83
2021/01/07 08:34:31;;;;;;;5.30;3.83;;;2.20;96.50;;;;;;5028611;28;20049;-83
2021/01/07 08:37:21;;;;;;;5.57;3.95;;;2.20;96.50;;;;;;5027546;28;20390;-82
2021/01/07 08:39:47;;;;;;;5.88;3.88;;;2.20;96.50;;;;;;5018218;28;20536;-82
2021/01/07 08:42:16;;;;;;;6.13;3.33;;;2.20;96.50;;;;;;5027665;28;20041;-83
2021/01/07 08:44:44;;;;;;;8.02;4.13;;;2.20;96.60;;;;;;5028735;28;20046;-82
2021/01/07 08:47:23;;;;;;;7.20;3.72;;;2.30;96.50;;;;;;5028872;28;20052;-83
2021/01/07 08:50:11;;;;;;;6.70;3.30;;;2.30;96.50;;;;;;5026277;28;20371;-82
2021/01/07 08:52:59;;;;;;;5.10;3.72;;;2.30;96.50;;;;;;5026318;28;20045;-81
2021/01/07 08:55:50;;;;;;;6.60;3.78;;;2.30;96.50;;;;;;5027863;28;20068;-82
2021/01/07 08:58:22;;;;;;;6.18;3.50;;;2.30;96.50;;;;;;5013771;28;20046;-82
2021/01/07 09:00:53;;;;;;;5.60;3.83;;;2.40;96.60;;;;;;5025041;28;20049;-82
2021/01/07 09:03:19;;;;;;;6.15;3.60;;;2.40;96.50;;;;;;5026844;28;20034;-83
2021/01/07 09:05:45;;;;;;;4.90;3.28;;;2.40;96.50;;;;;;5027568;28;20103;-82
2021/01/07 09:08:13;;;;;;;5.22;3.40;;;2.40;96.50;;;;;;5026594;28;20057;-83
2021/01/07 09:10:41;;;;;;;6.25;3.53;;;2.40;96.50;;;;;;5027260;28;20457;-83
2021/01/07 09:13:21;;;;;;;4.82;3.17;;;2.50;96.60;;;;;;5026401;28;20745;-82
2021/01/07 09:15:48;;;;;;;6.22;3.50;;;2.50;96.60;;;;;;5026761;28;20493;-81
2021/01/07 09:18:20;;;;;;;5.75;3.15;;;2.50;96.50;;;;;;5026831;28;20480;-83
2021/01/07 09:20:46;;;;;;;6.05;3.60;;;2.60;96.50;;;;;;5026007;28;20079;-82
2021/01/07 09:23:16;;;;;;;4.47;2.70;;;2.60;96.50;;;;;;5043645;28;20054;-83
2021/01/07 09:25:43;;;;;;;6.40;3.03;;;2.60;96.50;;;;;;5026928;28;20482;-82
2021/01/07 09:28:09;;;;;;;4.60;2.40;;;2.60;96.50;;;;;;5026321;28;20494;-83
2021/01/07 09:30:35;;;;;;;4.18;2.55;;;2.70;96.50;;;;;;5028551;28;20087;-83
2021/01/07 09:33:01;;;;;;;5.03;2.63;;;2.70;96.50;;;;;;5026402;28;20072;-83
2021/01/07 09:35:28;;;;;;;6.90;2.60;;;2.70;96.50;;;;;;5041448;28;20049;-84
2021/01/07 09:37:55;;;;;;;4.65;2.50;;;2.70;96.50;;;;;;5039537;28;20497;-81
2021/01/07 09:40:21;;;;;;;4.90;2.40;;;2.80;96.50;;;;;;5026478;28;20049;-82
2021/01/07 09:42:46;;;;;;;5.57;2.85;;;2.80;96.50;;;;;;5027790;28;20405;-81
2021/01/07 09:45:12;;;;;;;4.95;2.30;;;2.90;96.50;;;;;;5027380;28;20049;-81
2021/01/07 09:47:39;;;;;;;5.50;2.60;;;2.90;96.50;;;;;;5027221;28;20052;-82
2021/01/07 09:50:09;;;;;;;5.53;2.50;;;2.90;96.50;;;;;;5026913;28;20046;-82
2021/01/07 09:52:35;;;;;;;3.25;2.13;;;2.90;96.50;;;;;;5028007;28;20592;-82
2021/01/07 09:55:03;;;;;;;4.32;2.90;;;3.00;96.50;;;;;;5026882;28;20053;-82
2021/01/07 09:57:28;;;;;;;7.00;4.50;;;3.00;96.40;;;;;;5039363;28;20049;-82
2021/01/07 09:59:54;;;;;;;3.95;3.10;;;3.00;96.40;;;;;;5026081;28;20513;-81
2021/01/07 10:02:20;;;;;;;5.68;2.40;;;3.10;96.40;;;;;;5028713;28;20049;-82
2021/01/07 10:04:46;;;;;;;3.80;2.55;;;3.10;96.40;;;;;;5038168;28;20504;-81
2021/01/07 10:07:13;;;;;;;3.78;2.55;;;3.10;96.30;;;;;;5026683;28;20166;-82
2021/01/07 10:09:39;;;;;;;4.75;3.00;;;3.10;96.30;;;;;;5027006;28;20064;-82
2021/01/07 10:12:06;;;;;;;3.45;2.80;;;3.10;96.30;;;;;;5024935;28;20482;-81
2021/01/07 10:14:32;;;;;;;4.90;2.60;;;3.10;96.30;;;;;;5025325;28;20061;-81
2021/01/07 10:17:00;;;;;;;3.70;2.72;;;3.20;96.30;;;;;;5027852;28;20107;-82
2021/01/07 10:19:31;;;;;;;5.20;2.63;;;3.20;96.20;;;;;;5027540;28;20053;-82
2021/01/07 10:22:00;;;;;;;2.97;1.95;;;3.20;96.30;;;;;;5025329;28;20076;-82
2021/01/07 10:24:27;;;;;;;3.53;2.10;;;3.20;96.20;;;;;;5028098;28;20049;-82
2021/01/07 10:26:56;;;;;;;3.78;2.05;;;3.20;96.50;;;;;;5025827;28;20041;-82
2021/01/07 10:29:22;;;;;;;2.97;2.00;;;3.20;96.10;;;;;;5025858;28;20042;-81
2021/01/07 10:31:48;;;;;;;3.72;1.85;;;3.20;96.10;;;;;;5029752;28;20052;-81
2021/01/07 10:34:15;;;;;;;2.75;2.08;;;3.20;96.00;;;;;;5031052;28;20099;-81
2021/01/07 10:36:42;;;;;;;3.22;1.77;;;3.30;96.10;;;;;;5030824;28;20076;-82
2021/01/07 10:39:14;;;;;;;2.92;1.40;;;3.30;96.10;;;;;;5042558;28;20051;-81
2021/01/07 10:41:44;;;;;;;2.92;1.80;;;3.30;96.10;;;;;;5033047;28;20050;-80
2021/01/07 10:44:11;;;;;;;2.85;2.03;;;3.30;96.00;;;;;;5029978;28;20060;-81
2021/01/07 10:46:38;;;;;;;2.38;1.73;;;3.40;96.00;;;;;;5031334;28;20045;-81
2021/01/07 10:49:05;;;;;;;4.75;1.55;;;3.40;96.00;;;;;;5030661;28;20103;-82
2021/01/07 10:51:45;;;;;;;2.08;1.40;;;3.50;96.00;;;;;;5030327;28;20100;-82
2021/01/07 10:54:31;;;;;;;2.47;1.52;;;3.50;95.90;;;;;;5029934;28;20049;-81
2021/01/07 10:57:09;;;;;;;2.10;1.50;;;3.60;95.80;;;;;;5029972;28;20089;-81
2021/01/07 11:00:01;;;;;;;2.05;1.48;;;3.70;95.80;;;;;;5029592;28;20049;-82
2021/01/07 11:03:00;;;;;;;4.00;1.60;;;3.70;95.70;;;;;;5002091;28;20081;-81
2021/01/07 11:05:32;;;;;;;3.88;1.52;;;3.70;95.70;;;;;;5002078;28;20123;-81
2021/01/07 11:08:14;;;;;;;5.00;1.80;;;3.70;95.70;;;;;;5029318;28;20056;-81
2021/01/07 11:10:44;;;;;;;2.70;2.10;;;3.80;95.80;;;;;;5028913;28;20041;-81
2021/01/07 11:13:10;;;;;;;2.80;2.35;;;3.80;95.70;;;;;;5028390;28;20427;-82
2021/01/07 11:15:40;;;;;;;5.75;2.58;;;3.90;95.70;;;;;;5031491;28;20128;-80
2021/01/07 11:18:12;;;;;;;2.97;2.60;;;3.90;95.50;;;;;;5028396;28;20528;-82
2021/01/07 11:20:43;;;;;;;5.70;3.70;;;4.00;95.50;;;;;;5028832;28;20049;-81
2021/01/07 11:23:10;;;;;;;4.32;2.60;;;3.90;95.40;;;;;;5029188;28;20433;-82
2021/01/07 11:25:36;;;;;;;4.00;2.58;;;4.00;95.40;;;;;;5030230;28;20072;-82
2021/01/07 11:28:02;;;;;;;3.28;2.20;;;4.00;95.20;;;;;;5029737;28;20053;-81
2021/01/07 11:30:28;;;;;;;2.97;1.77;;;4.00;95.10;;;;;;5028737;28;20482;-82
2021/01/07 11:32:55;;;;;;;3.75;2.05;;;4.00;94.80;;;;;;5031089;28;20049;-81
2021/01/07 11:35:21;;;;;;;3.40;2.15;;;4.00;94.80;;;;;;5029428;28;20057;-82
2021/01/07 11:37:58;;;;;;;3.97;2.10;;;4.00;94.90;;;;;;5029622;28;20116;-82
2021/01/07 11:40:55;;;;;;;5.93;2.30;;;4.00;94.90;;;;;;5029024;28;20046;-82
2021/01/07 11:43:58;;;;;;;3.53;1.90;;;4.00;95.00;;;;;;5017737;28;20057;-81
2021/01/07 11:46:24;;;;;;;3.53;1.90;;;4.00;95.00;;;;;;5018548;28;20091;-82
2021/01/07 11:48:57;;;;;;;5.00;2.60;;;4.00;95.00;;;;;;5042332;28;20057;-82
2021/01/07 11:51:23;;;;;;;2.20;1.65;;;4.00;95.00;;;;;;5030171;28;20152;-82
2021/01/07 11:53:50;;;;;;;3.42;1.85;;;4.10;95.10;;;;;;5028832;28;20041;-81
2021/01/07 11:56:17;;;;;;;6.47;2.47;;;4.10;95.10;;;;;;5028498;28;20087;-80
2021/01/07 11:58:43;;;;;;;6.55;2.30;;;4.10;95.10;;;;;;5030638;28;20061;-81
2021/01/07 12:01:09;;;;;;;3.88;1.70;;;4.10;95.10;;;;;;5027728;28;20391;-82
2021/01/07 12:03:36;;;;;;;5.32;2.13;;;4.20;95.10;;;;;;5029541;28;20393;-82
2021/01/07 12:06:07;;;;;;;2.50;1.55;;;4.20;95.10;;;;;;5028046;28;20410;-82
2021/01/07 12:08:40;;;;;;;4.05;1.77;;;4.20;95.10;;;;;;5030478;28;20054;-82
2021/01/07 12:11:12;;;;;;;2.00;1.50;;;4.20;95.00;;;;;;5026885;28;20049;-78
2021/01/07 12:13:50;;;;;;;2.35;1.70;;;4.20;95.00;;;;;;5027472;28;20136;-80
2021/01/07 12:16:23;;;;;;;3.00;1.40;;;4.20;94.90;;;;;;5028616;28;20382;-82
2021/01/07 12:18:55;;;;;;;3.55;1.45;;;4.20;95.00;;;;;;5029526;28;20045;-82
2021/01/07 12:21:22;;;;;;;2.30;1.10;;;4.20;95.00;;;;;;5029485;28;20122;-83
2021/01/07 12:23:48;;;;;;;2.15;0.90;;;4.20;94.80;;;;;;5027949;28;20052;-83
2021/01/07 12:26:14;;;;;;;1.83;0.60;;;4.20;94.10;;;;;;5029333;28;20132;-83
2021/01/07 12:28:49;;;;;;;1.23;0.70;;;4.20;93.90;;;;;;5028818;28;20049;-82
2021/01/07 12:31:17;;;;;;;2.22;0.80;;;4.20;93.90;;;;;;5028187;28;20057;-83
2021/01/07 12:33:58;;;;;;;2.35;0.98;;;4.20;94.00;;;;;;5029351;28;20049;-83
2021/01/07 12:36:39;;;;;;;2.30;0.80;;;4.20;94.20;;;;;;5043047;28;20041;-83
2021/01/07 12:39:28;;;;;;;2.47;0.98;;;4.20;94.20;;;;;;5028740;28;20140;-83
2021/01/07 12:41:56;;;;;;;1.63;0.80;;;4.20;94.20;;;;;;5000624;28;20050;-82
2021/01/07 12:44:24;;;;;;;1.13;0.70;;;4.20;94.30;;;;;;5028648;28;20073;-83
2021/01/07 12:46:55;;;;;;;1.15;0.65;;;4.20;94.30;;;;;;5027057;28;20045;-83
2021/01/07 12:49:22;;;;;;;2.85;0.85;;;4.20;94.10;;;;;;5027281;28;20401;-83
2021/01/07 12:51:49;;;;;;;0.85;0.80;;;4.20;94.10;;;;;;5029001;28;20053;-82
2021/01/07 12:54:16;;;;;;;1.48;0.80;;;4.10;94.00;;;;;;5027436;28;20527;-84
2021/01/07 12:57:03;;;;;;;1.05;0.73;;;4.20;94.00;;;;;;5027378;28;20490;-83
2021/01/07 12:59:38;;;;;;;2.15;1.10;;;4.20;94.00;;;;;;5027896;28;20045;-83
2021/01/07 13:02:27;;;;;;;2.38;0.98;;;4.20;94.20;;;;;;5028716;28;20111;-83
2021/01/07 13:05:03;;;;;;;2.10;0.90;;;4.20;94.20;;;;;;5011020;28;20057;-83
2021/01/07 13:07:32;;;;;;;2.30;0.80;;;4.30;94.30;;;;;;5019474;28;20176;-83
2021/01/07 13:10:02;;;;;;;2.13;0.77;;;4.30;94.20;;;;;;5027731;28;20136;-84